Latest Weather Observations for Mount Buller

IDV60801

Issued at 8:42 am EST Tuesday 24 May 2022 (issued every 10 minutes, with the page automatically refreshed every 10 minutes)

About weather observations | Map of weather stations | Latest weather observations for VIC | Other Formats
Station Details ID: 083024 Name: MOUNT BULLER Lat: -37.15 Lon: 146.44 Height: 1707.0 m
Data from the previous 72 hours. | See also: Recent months at Mount Buller
Date/Time
EST
Temp
°C
App
Temp
°C
Dew
Point
°C
Rel
Hum
%
Delta-T
°C
Wind Press
QNH
hPa
Press
MSL
hPa
Rain since
9am
mm
Dir  Spd
km/h
Gust
km/h
Spd
kts
Gust
kts
24/08:30am 4.8 2.4 -3.0 57 3.1 CALM 0 0 0 0 - - 0.0
24/08:00am 3.5 0.4 -2.4 65 2.3 W 4 7 2 4 - - 0.0
24/07:30am 2.9 -0.5 -1.8 71 1.9 WNW 6 7 3 4 - - 0.0
24/07:00am 2.7 -0.7 -2.4 69 2.0 WNW 6 7 3 4 - - 0.0
24/06:30am 3.4 0.3 -2.7 64 2.4 WNW 4 6 2 3 - - 0.0
24/06:00am 3.1 -0.4 -2.6 66 2.2 WNW 6 7 3 4 - - 0.0
24/05:30am 3.3 0.1 -3.7 60 2.7 WNW 4 6 2 3 - - 0.0
24/05:00am 3.2 0.8 -3.4 62 2.5 CALM 0 0 0 0 - - 0.0
24/04:30am 3.4 0.7 -2.7 64 2.4 N 2 4 1 2 - - 0.0
24/04:00am 2.8 -0.8 -3.5 63 2.4 NNE 6 7 3 4 - - 0.0
24/03:30am 3.5 -0.6 -2.9 63 2.5 NNE 9 11 5 6 - - 0.0
24/03:00am 3.7 -0.4 -2.9 62 2.6 N 9 11 5 6 - - 0.0
24/02:30am 3.5 -0.7 -3.5 60 2.7 N 9 11 5 6 - - 0.0
24/02:00am 3.2 -1.5 -4.7 56 2.9 N 11 11 6 6 - - 0.0
24/01:30am 3.6 -1.2 -5.8 50 3.4 N 11 11 6 6 - - 0.0
24/01:00am 4.3 -0.5 -6.0 47 3.8 N 11 11 6 6 - - 0.0
24/12:30am 4.1 -0.3 -5.6 49 3.6 N 9 11 5 6 - - 0.0
24/12:00am 4.6 0.6 -5.2 49 3.7 NNE 7 9 4 5 - - 0.0
 
Date/Time
EST
Temp
°C
App
Temp
°C
Dew
Point
°C
Rel
Hum
%
Delta-T
°C
Wind Press
QNH
hPa
Press
MSL
hPa
Rain since
9am
mm
Dir  Spd
km/h
Gust
km/h
Spd
kts
Gust
kts
23/11:30pm 4.6 0.9 -4.6 51 3.5 NNE 6 7 3 4 - - 0.0
23/11:00pm 4.4 0.8 -3.6 56 3.1 NNW 6 7 3 4 - - 0.0
23/10:30pm 4.9 1.6 -4.1 52 3.5 N 4 9 2 5 - - 0.0
23/10:00pm 4.8 1.9 -4.2 52 3.5 N 2 4 1 2 - - 0.0
23/09:30pm 4.1 0.6 -3.0 60 2.8 ENE 6 6 3 3 - - 0.0
23/09:00pm 3.7 0.3 -2.3 65 2.4 E 6 7 3 4 - - 0.0
23/08:30pm 3.6 -0.2 -1.0 72 1.9 E 9 11 5 6 - - 0.0
23/08:00pm 3.4 -0.7 0.1 79 1.4 E 11 13 6 7 - - 0.0
23/07:30pm 3.3 -1.1 0.5 82 1.2 ESE 13 15 7 8 - - 0.0
23/07:00pm 3.6 -0.2 2.0 89 0.7 ESE 11 15 6 8 - - 0.0
23/06:30pm 4.1 1.1 4.0 99 0.0 SE 9 11 5 6 - - 0.0
23/06:00pm 2.7 -0.6 2.6 99 0.0 SSE 9 9 5 5 - - 0.0
23/05:30pm 3.1 -0.1 2.8 98 0.1 SSE 9 9 5 5 - - 0.0
23/05:00pm 4.0 1.3 2.7 91 0.6 SSE 6 7 3 4 - - 0.0
23/04:30pm 5.0 2.3 2.7 85 1.0 SSE 6 6 3 3 - - 0.0
23/04:00pm 5.4 3.2 3.1 85 1.1 SE 4 7 2 4 - - 0.0
23/03:30pm 5.4 3.1 2.9 84 1.1 SSE 4 6 2 3 - - 0.0
23/03:00pm 5.1 2.6 1.8 79 1.5 SSE 4 6 2 3 - - 0.0
23/02:30pm 5.0 2.5 1.5 78 1.5 SSE 4 6 2 3 - - 0.0
23/02:00pm 5.5 2.9 1.2 74 1.9 S 4 6 2 3 - - 0.0
23/01:30pm 5.1 1.9 -0.3 68 2.3 SSW 6 7 3 4 - - 0.0
23/01:00pm 5.1 1.7 -1.8 61 2.8 SSW 6 7 3 4 - - 0.0
23/12:30pm 5.9 2.2 -2.9 53 3.5 SW 7 9 4 5 - - 0.0
23/12:00pm 5.8 2.1 -2.8 54 3.5 SSW 7 9 4 5 - - 0.0
23/11:30am 5.7 2.7 0.9 71 2.1 SSE 6 7 3 4 - - 0.0
23/11:00am 5.7 2.6 -2.9 54 3.4 SSW 4 7 2 4 - - 0.0
23/10:30am 5.6 2.4 -3.2 53 3.5 SSW 4 7 2 4 - - 0.0
23/10:00am 6.2 2.4 -4.0 48 4.0 WSW 7 9 4 5 - - 0.0
23/09:30am 5.8 2.3 -3.0 53 3.5 SW 6 9 3 5 - - 0.0
23/09:00am 5.5 1.2 -1.6 60 2.9 WSW 11 13 6 7 - - 0.0
23/08:30am 4.3 -0.3 -0.7 70 2.1 WSW 13 19 7 10 - - 0.0
23/08:00am 4.0 -0.9 -3.3 59 2.8 WSW 13 17 7 9 - - 0.0
23/07:30am 3.3 -1.9 -2.4 66 2.3 WSW 15 17 8 9 - - 0.0
23/07:00am 2.4 -2.1 -0.4 82 1.2 WSW 13 20 7 11 - - 0.0
23/06:30am 2.3 -2.4 1.0 91 0.6 WSW 15 17 8 9 - - 0.0
23/06:00am 1.9 -3.2 1.0 94 0.4 W 17 19 9 10 - - 0.0
23/05:30am 1.4 -2.5 -1.2 83 1.0 W 9 11 5 6 - - 0.0
23/05:00am 2.0 -1.7 0.1 87 0.8 WNW 9 13 5 7 - - 0.0
23/04:30am 2.3 -1.4 0.0 85 1.0 WNW 9 11 5 6 - - 0.0
23/04:00am 2.5 -1.0 1.0 90 0.6 WNW 9 11 5 6 - - 0.0
23/03:30am 3.0 -0.5 1.5 90 0.7 NW 9 13 5 7 - - 0.0
23/03:00am 3.3 -0.4 2.1 92 0.5 NW 11 13 6 7 - - 0.0
23/02:30am 2.9 -0.6 1.4 90 0.6 NNW 9 13 5 7 - - 0.0
23/02:00am 3.2 -1.1 0.9 85 1.0 NNW 13 15 7 8 - - 0.0
23/01:30am 3.3 -1.4 1.2 86 0.9 NNW 15 17 8 9 - - 0.0
23/01:00am 3.2 -1.5 1.1 86 0.9 NNW 15 15 8 8 - - 0.0
23/12:30am 3.6 -1.0 1.3 85 1.0 NNW 15 19 8 10 - - 0.0
23/12:00am 3.5 -0.8 1.2 85 1.0 NNW 13 17 7 9 - - 0.0
 
Date/Time
EST
Temp
°C
App
Temp
°C
Dew
Point
°C
Rel
Hum
%
Delta-T
°C
Wind Press
QNH
hPa
Press
MSL
hPa
Rain since
9am
mm
Dir  Spd
km/h
Gust
km/h
Spd
kts
Gust
kts
22/11:30pm 3.9 -0.1 0.8 80 1.3 N 11 15 6 8 - - 0.0
22/11:00pm 4.2 1.0 0.7 78 1.5 N 7 11 4 6 - - 0.0
22/10:30pm 4.0 0.4 0.3 77 1.6 N 9 13 5 7 - - 0.0
22/10:00pm 4.2 0.4 -0.4 72 1.9 NNE 9 11 5 6 - - 0.0
22/09:30pm 4.1 0.5 -1.9 65 2.4 NNE 7 11 4 6 - - 0.0
22/09:00pm 4.1 0.7 -2.3 63 2.6 NNE 6 9 3 5 - - 0.0
22/08:30pm 3.7 0.0 -3.3 60 2.7 NE 7 11 4 6 - - 0.0
22/08:00pm 4.5 1.3 -0.3 71 2.0 NE 6 7 3 4 - - 0.0
22/07:30pm 3.6 0.8 2.1 90 0.7 NE 6 7 3 4 - - 0.0
22/07:00pm 4.0 1.3 2.5 90 0.7 ENE 6 6 3 3 - - 0.0
22/06:30pm 3.9 1.1 2.1 88 0.8 ENE 6 7 3 4 - - 0.0
22/06:00pm 3.5 0.5 1.7 88 0.8 E 7 9 4 5 - - 0.0
22/05:30pm 4.5 2.4 1.4 80 1.4 SE 2 4 1 2 - - 0.0
22/05:00pm 5.7 4.1 2.5 80 1.5 CALM 0 2 0 1 - - 0.0
22/04:30pm 6.5 4.4 2.0 73 2.0 NNE 2 4 1 2 - - 0.0
22/04:00pm 7.4 5.4 2.3 70 2.4 NE 2 6 1 3 - - 0.0
22/03:30pm 7.6 5.6 2.1 68 2.5 NNE 2 6 1 3 - - 0.0
22/03:00pm 7.8 5.0 2.1 67 2.6 NE 6 7 3 4 - - 0.0
22/02:30pm 7.9 5.0 1.3 63 3.0 NNE 6 11 3 6 - - 0.0
22/02:00pm 9.1 6.7 2.2 62 3.2 NE 4 9 2 5 - - 0.0
22/01:30pm 7.8 5.2 1.0 62 3.1 NE 4 9 2 5 - - 0.0
22/01:00pm 7.3 4.4 -1.4 54 3.7 ESE 4 11 2 6 - - 0.0
22/12:30pm 8.4 5.2 -0.6 53 3.9 NNE 6 11 3 6 - - 0.0
22/12:00pm 8.1 4.5 -3.7 43 4.8 NNW 6 11 3 6 - - 0.0
22/11:30am 7.4 3.4 -2.1 51 3.9 N 9 13 5 7 - - 0.0
22/11:00am 7.7 4.1 -3.5 45 4.5 N 6 9 3 5 - - 0.0
22/10:30am 7.3 3.6 -3.2 47 4.2 N 7 11 4 6 - - 0.0
22/10:00am 7.0 3.4 -3.5 47 4.2 N 6 9 3 5 - - 0.0
22/09:30am 7.1 3.9 -3.7 46 4.3 NNE 4 9 2 5 - - 0.0
22/09:00am 6.4 3.5 -4.4 46 4.2 NE 2 6 1 3 - - 2.0
22/08:30am 5.6 2.0 -3.5 52 3.6 NE 6 7 3 4 - - 2.0
22/08:00am 4.9 2.1 -3.6 54 3.3 NE 2 4 1 2 - - 2.0
22/07:30am 3.4 0.8 -4.8 55 3.1 CALM 0 0 0 0 - - 2.0
22/07:00am 3.0 0.5 -4.2 59 2.7 CALM 0 0 0 0 - - 2.0
22/06:30am 2.8 0.2 -1.7 72 1.8 NW 2 6 1 3 - - 2.0
22/06:00am 3.0 0.0 -2.1 69 2.0 NW 4 6 2 3 - - 2.0
22/05:30am 3.1 0.1 -2.2 68 2.1 NW 4 6 2 3 - - 2.0
22/05:00am 2.9 -0.6 -3.0 65 2.3 NW 6 6 3 3 - - 2.0
22/04:30am 3.1 -0.5 -3.9 60 2.7 NW 6 6 3 3 - - 2.0
22/04:00am 3.2 -0.6 -5.4 53 3.1 WNW 6 7 3 4 - - 2.0
22/03:30am 2.9 -1.1 -6.0 52 3.4 NW 7 9 4 5 - - 2.0
22/03:00am 3.3 -0.4 -2.8 64 2.4 NW 7 9 4 5 - - 2.0
22/02:30am 3.6 -0.5 -3.0 62 2.6 NNW 9 9 5 5 - - 2.0
22/02:00am 3.4 -0.3 -3.0 63 2.5 NNW 7 13 4 7 - - 2.0
22/01:30am 3.8 0.0 -3.5 59 2.8 NNW 7 11 4 6 - - 2.0
22/01:00am 4.3 1.2 -2.8 60 2.8 NNW 4 7 2 4 - - 2.0
22/12:30am 4.1 0.3 -4.1 55 3.1 N 7 9 4 5 - - 2.0
22/12:00am 4.6 0.9 -4.4 52 3.4 N 6 9 3 5 - - 2.0
 
Date/Time
EST
Temp
°C
App
Temp
°C
Dew
Point
°C
Rel
Hum
%
Delta-T
°C
Wind Press
QNH
hPa
Press
MSL
hPa
Rain since
9am
mm
Dir  Spd
km/h
Gust
km/h
Spd
kts
Gust
kts
21/11:30pm 3.7 -1.3 -4.5 55 3.1 NNE 13 19 7 10 - - 2.0
21/11:00pm 4.6 -0.9 -5.2 49 3.7 NNE 15 19 8 10 - - 2.0
21/10:30pm 4.7 -1.3 -11.0 31 5.4 NNE 15 19 8 10 - - 2.0
21/10:00pm 4.8 -0.9 -12.6 27 5.7 NNE 13 15 7 8 - - 2.0
21/09:30pm 4.5 -1.7 -13.8 25 5.8 NNE 15 19 8 10 - - 2.0
21/09:00pm 4.8 -1.0 -14.0 24 5.9 NE 13 17 7 9 - - 2.0
21/08:30pm 4.6 -1.1 -13.2 26 5.7 ENE 13 17 7 9 - - 2.0
21/08:00pm 4.6 -0.7 -12.3 28 5.6 ENE 11 15 6 8 - - 2.0
21/07:30pm 4.4 -0.9 -11.6 30 5.3 E 11 17 6 9 - - 2.0
21/07:00pm 3.9 -2.0 -10.5 34 4.9 E 15 19 8 10 - - 2.0
21/06:30pm 3.9 -2.4 -9.8 36 4.7 ESE 17 22 9 12 - - 2.0
21/06:00pm 3.3 -2.4 -3.5 61 2.6 ESE 17 22 9 12 - - 2.0
21/05:30pm 3.5 -1.5 -1.4 70 2.0 ESE 15 19 8 10 - - 2.0
21/05:00pm 4.0 1.0 2.0 87 0.9 ESE 7 11 4 6 - - 2.0
21/04:30pm 4.6 1.6 2.3 85 1.0 SE 7 15 4 8 - - 2.0
21/04:00pm 4.9 1.9 2.1 82 1.3 ESE 7 11 4 6 - - 2.0
21/03:30pm 5.8 3.8 2.1 77 1.7 SSE 2 4 1 2 - - 2.0
21/03:00pm 5.5 3.0 1.6 76 1.7 SSE 4 6 2 3 - - 2.0
21/02:30pm 5.7 2.8 1.4 74 1.9 SE 6 13 3 7 - - 2.0
21/02:00pm 5.9 2.8 1.1 71 2.1 SE 7 13 4 7 - - 2.0
21/01:30pm 6.1 3.1 0.9 69 2.3 SE 6 15 3 8 - - 2.0
21/01:00pm 5.8 2.6 -0.3 65 2.6 SE 6 7 3 4 - - 2.0
21/12:30pm 5.8 2.6 -0.7 63 2.8 SE 6 9 3 5 - - 1.4
21/12:00pm 6.6 3.9 0.1 63 2.8 ESE 4 13 2 7 - - 1.2
21/11:30am 6.0 2.7 -1.4 59 3.1 E 6 11 3 6 - - 0.8
21/11:00am 4.5 1.1 -0.7 69 2.2 SSE 7 9 4 5 - - 0.6
21/10:30am 4.2 0.0 -0.6 71 2.0 S 11 13 6 7 - - 0.4
21/10:00am 4.0 -0.1 -0.4 73 1.8 S 11 13 6 7 - - 0.2
21/09:30am 4.1 0.7 -1.7 66 2.4 S 6 9 3 5 - - 0.0
21/09:00am 3.7 0.7 -1.8 67 2.2 SSW 4 6 2 3 - - 9.8

Other formats

Comma delimited format used in spreadsheet applications
http://www.bom.gov.au/fwo/IDV60801/IDV60801.94894.axf

JavaScript Object Notation format (JSON) in row-major order
http://www.bom.gov.au/fwo/IDV60801/IDV60801.94894.json

Data quality

Most of these data are generated automatically and are frequently updated. Quality checks on data are not normally performed. It is possible for incorrect values to appear. Refer to information at About Latest Weather Observations and please check the disclaimer before using these data.